createdAt,value
2017-06-03T00:00:14.156Z,99.99
2017-06-03T00:01:15.583Z,99.99
2017-06-03T00:02:17.014Z,99.99
2017-06-03T00:03:18.438Z,99.99
2017-06-03T00:04:19.866Z,99.99
2017-06-03T00:05:21.295Z,99.99
2017-06-03T00:06:22.729Z,99.99
2017-06-03T00:07:24.157Z,99.99
2017-06-03T00:08:25.584Z,99.99
2017-06-03T00:09:27.013Z,99.99
2017-06-03T00:10:28.437Z,99.99
2017-06-03T00:11:29.864Z,99.99
2017-06-03T00:12:31.298Z,99.99
2017-06-03T00:13:32.725Z,99.99
2017-06-03T00:14:34.156Z,99.99
2017-06-03T00:15:35.588Z,99.99
2017-06-03T00:16:37.027Z,99.99
2017-06-03T00:17:38.455Z,99.99
2017-06-03T00:18:39.886Z,99.99
2017-06-03T00:19:41.315Z,99.99
2017-06-03T00:20:42.739Z,99.99
2017-06-03T00:21:44.163Z,99.99
2017-06-03T00:22:45.589Z,99.99
2017-06-03T00:23:47.030Z,99.99
2017-06-03T00:24:48.460Z,99.99
2017-06-03T00:25:49.889Z,99.99
2017-06-03T00:26:51.331Z,99.99
2017-06-03T00:27:52.756Z,99.99
2017-06-03T00:28:54.184Z,99.99
2017-06-03T00:29:55.611Z,99.99
2017-06-03T00:30:57.045Z,99.99
2017-06-03T00:31:58.483Z,99.99
2017-06-03T00:32:59.912Z,99.99
2017-06-03T00:34:01.343Z,99.99
2017-06-03T00:35:02.862Z,99.99
2017-06-03T00:36:04.287Z,99.99
2017-06-03T00:37:05.719Z,99.99
2017-06-03T00:38:07.147Z,99.99
2017-06-03T00:39:08.585Z,99.99
2017-06-03T00:40:10.005Z,99.99
2017-06-03T00:41:11.439Z,99.99
2017-06-03T00:42:12.870Z,99.99
2017-06-03T00:43:14.293Z,99.99
2017-06-03T00:44:15.729Z,99.99
2017-06-03T00:45:17.159Z,99.99
2017-06-03T00:46:18.594Z,99.99
2017-06-03T00:47:20.037Z,99.99
2017-06-03T00:48:21.462Z,99.99
2017-06-03T00:49:22.900Z,99.99
2017-06-03T00:50:24.324Z,99.99
2017-06-03T00:51:25.755Z,99.99
2017-06-03T00:52:27.187Z,99.99
2017-06-03T00:53:28.609Z,99.99
2017-06-03T00:54:30.038Z,99.99
2017-06-03T00:55:31.470Z,99.99
2017-06-03T00:56:32.895Z,99.99
2017-06-03T00:57:34.361Z,99.99
2017-06-03T00:58:36.061Z,99.99
2017-06-03T00:59:37.530Z,99.99
2017-06-03T01:00:38.966Z,99.99
2017-06-03T01:01:40.392Z,99.99
2017-06-03T01:02:41.819Z,99.99
2017-06-03T01:03:43.256Z,99.99
2017-06-03T01:04:44.682Z,99.99
2017-06-03T01:05:46.117Z,99.99
2017-06-03T01:06:47.549Z,99.99
2017-06-03T01:07:48.982Z,99.99
2017-06-03T01:08:50.403Z,99.99
2017-06-03T01:09:51.828Z,99.99
2017-06-03T01:10:53.259Z,99.99
2017-06-03T01:11:54.680Z,99.99
2017-06-03T01:12:56.104Z,99.99
2017-06-03T01:13:57.537Z,99.99
2017-06-03T01:14:58.966Z,99.99
2017-06-03T01:16:00.394Z,99.99
2017-06-03T01:17:01.816Z,99.99
2017-06-03T01:18:03.249Z,99.99
2017-06-03T01:19:04.676Z,99.99
2017-06-03T01:20:06.102Z,99.99
2017-06-03T01:21:07.525Z,99.99
2017-06-03T01:22:08.953Z,99.99
2017-06-03T01:23:10.381Z,99.99
2017-06-03T01:24:11.809Z,99.99
2017-06-03T01:25:13.242Z,99.99
2017-06-03T01:26:14.670Z,99.99
2017-06-03T01:27:16.096Z,99.99
2017-06-03T01:28:17.525Z,99.99
2017-06-03T01:29:18.953Z,99.99
2017-06-03T01:30:20.382Z,99.99
2017-06-03T01:31:21.807Z,99.99
2017-06-03T01:32:23.239Z,99.99
2017-06-03T01:33:24.670Z,99.99
2017-06-03T01:34:26.099Z,99.99
2017-06-03T01:35:27.527Z,99.99
2017-06-03T01:36:28.954Z,99.99
2017-06-03T01:37:30.383Z,99.99
2017-06-03T01:38:31.806Z,99.99
2017-06-03T01:39:33.234Z,99.99
2017-06-03T01:40:34.659Z,99.99
2017-06-03T01:41:36.084Z,99.99
2017-06-03T01:42:37.519Z,99.99
2017-06-03T01:43:38.948Z,99.99
2017-06-03T01:44:40.373Z,99.99
2017-06-03T01:45:41.803Z,99.99
2017-06-03T01:46:43.239Z,99.99
2017-06-03T01:47:44.674Z,99.99
2017-06-03T01:48:46.105Z,99.99
2017-06-03T01:49:47.536Z,99.99
2017-06-03T01:50:48.965Z,99.99
2017-06-03T01:51:50.392Z,99.99
2017-06-03T01:52:51.819Z,99.99
2017-06-03T01:53:53.246Z,99.99
2017-06-03T01:54:54.676Z,99.99
2017-06-03T01:55:56.106Z,99.99
2017-06-03T01:56:57.529Z,99.99
2017-06-03T01:57:58.962Z,99.99
2017-06-03T01:59:00.397Z,99.99
2017-06-03T02:00:02.579Z,99.99
2017-06-03T02:01:04.007Z,99.99
2017-06-03T02:02:05.475Z,99.99
2017-06-03T02:03:06.895Z,99.99
2017-06-03T02:04:08.322Z,99.99
2017-06-03T02:05:09.751Z,99.99
2017-06-03T02:06:11.176Z,99.99
2017-06-03T02:07:12.615Z,99.99
2017-06-03T02:08:14.044Z,99.99
2017-06-03T02:09:15.464Z,99.99
2017-06-03T02:10:16.894Z,99.99
2017-06-03T02:11:18.319Z,99.99
2017-06-03T02:12:19.751Z,99.99
2017-06-03T02:13:21.172Z,99.99
2017-06-03T02:14:22.608Z,99.99
2017-06-03T02:15:24.047Z,99.99
2017-06-03T02:16:25.473Z,99.99
2017-06-03T02:17:26.894Z,99.99
2017-06-03T02:18:28.316Z,99.99
2017-06-03T02:19:29.746Z,99.99
2017-06-03T02:20:31.179Z,99.99
2017-06-03T02:21:32.600Z,99.99
2017-06-03T02:22:34.027Z,99.99
2017-06-03T02:23:35.450Z,99.99
2017-06-03T02:24:36.879Z,99.99
2017-06-03T02:25:38.301Z,99.99
2017-06-03T02:26:39.734Z,99.99
2017-06-03T02:27:41.156Z,99.99
2017-06-03T02:28:42.588Z,99.99
2017-06-03T02:29:44.012Z,99.99
2017-06-03T02:30:45.444Z,99.99
2017-06-03T02:31:46.872Z,99.99
2017-06-03T02:32:48.302Z,99.99
2017-06-03T02:33:49.726Z,99.99
2017-06-03T02:34:51.174Z,99.99
2017-06-03T02:35:52.602Z,99.99
2017-06-03T02:36:54.026Z,99.99
2017-06-03T02:37:55.454Z,99.99
2017-06-03T02:38:56.882Z,99.99
2017-06-03T02:39:58.302Z,99.99
2017-06-03T02:40:59.732Z,99.99
2017-06-03T02:42:01.158Z,99.99
2017-06-03T02:43:02.584Z,99.99
2017-06-03T02:44:04.027Z,99.99
2017-06-03T02:45:05.461Z,99.99
2017-06-03T02:46:07.612Z,99.99
2017-06-03T02:47:09.045Z,99.99
2017-06-03T02:48:10.473Z,99.99
2017-06-03T02:49:11.899Z,99.99
2017-06-03T02:50:13.329Z,99.99
2017-06-03T02:51:14.758Z,99.99
2017-06-03T02:52:16.184Z,99.99
2017-06-03T02:53:17.610Z,99.99
2017-06-03T02:54:19.082Z,99.99
2017-06-03T02:55:20.506Z,99.99
2017-06-03T02:56:21.933Z,99.99
2017-06-03T02:57:23.366Z,99.99
2017-06-03T02:58:24.789Z,99.99
2017-06-03T02:59:26.214Z,99.99
2017-06-03T03:00:27.644Z,99.99
2017-06-03T03:01:29.069Z,99.99
2017-06-03T03:02:30.495Z,99.99
2017-06-03T03:03:31.923Z,99.99
2017-06-03T03:04:33.354Z,99.99
2017-06-03T03:05:34.794Z,99.99
2017-06-03T03:06:36.335Z,99.99
2017-06-03T03:07:37.770Z,99.99
2017-06-03T03:08:39.192Z,99.99
2017-06-03T03:09:40.625Z,99.99
2017-06-03T03:10:42.056Z,99.99
2017-06-03T03:11:43.489Z,99.99
2017-06-03T03:12:44.913Z,99.99
2017-06-03T03:13:46.343Z,99.99
2017-06-03T03:14:47.780Z,99.99
2017-06-03T03:15:49.203Z,99.99
2017-06-03T03:16:50.632Z,99.99
2017-06-03T03:17:52.063Z,99.99
2017-06-03T03:18:53.488Z,99.99
2017-06-03T03:19:54.915Z,99.99
2017-06-03T03:20:56.340Z,99.99
2017-06-03T03:21:57.774Z,99.99
2017-06-03T03:22:59.208Z,99.99
2017-06-03T03:24:00.635Z,99.99
2017-06-03T03:25:02.064Z,99.99
2017-06-03T03:26:03.494Z,99.99
2017-06-03T03:27:04.923Z,99.99
2017-06-03T03:28:06.345Z,99.99
2017-06-03T03:29:07.771Z,99.99
2017-06-03T03:30:09.203Z,99.99
2017-06-03T03:31:10.640Z,99.99
2017-06-03T03:32:12.072Z,99.99
2017-06-03T03:33:13.497Z,99.99
2017-06-03T03:34:14.925Z,99.99
2017-06-03T03:35:16.361Z,99.99
2017-06-03T03:36:17.789Z,99.99
2017-06-03T03:37:19.215Z,99.99
2017-06-03T03:38:20.648Z,99.99
2017-06-03T03:39:22.079Z,99.99
2017-06-03T03:40:23.507Z,99.99
2017-06-03T03:41:24.942Z,99.99
2017-06-03T03:42:26.375Z,99.99
2017-06-03T03:43:27.806Z,99.99
2017-06-03T03:44:29.245Z,99.99
2017-06-03T03:45:30.660Z,99.99
2017-06-03T03:46:32.094Z,99.99
2017-06-03T03:47:33.525Z,99.99
2017-06-03T03:48:34.958Z,99.99
2017-06-03T03:49:36.386Z,99.99
2017-06-03T03:50:37.813Z,99.99
2017-06-03T03:51:39.244Z,99.99
2017-06-03T03:52:40.674Z,99.99
2017-06-03T03:53:42.097Z,99.99
2017-06-03T03:54:43.530Z,99.99
2017-06-03T03:55:44.961Z,99.99
2017-06-03T03:56:46.387Z,99.99
2017-06-03T03:57:47.810Z,99.99
2017-06-03T03:58:49.242Z,99.99
2017-06-03T03:59:50.680Z,99.99
2017-06-03T04:00:52.109Z,99.99
2017-06-03T04:01:53.548Z,99.99
2017-06-03T04:02:54.971Z,99.99
2017-06-03T04:03:56.405Z,99.99
2017-06-03T04:04:57.838Z,99.99
2017-06-03T04:05:59.267Z,99.99
2017-06-03T04:07:00.701Z,99.99
2017-06-03T04:08:02.122Z,99.99
2017-06-03T04:09:03.550Z,99.99
2017-06-03T04:10:04.981Z,99.99
2017-06-03T04:11:06.422Z,99.99
2017-06-03T04:12:07.855Z,99.99
2017-06-03T04:13:09.290Z,99.99
2017-06-03T04:14:10.723Z,99.99
2017-06-03T04:15:12.148Z,99.99
2017-06-03T04:16:13.573Z,99.99
2017-06-03T04:17:15.003Z,99.99
2017-06-03T04:18:16.431Z,99.99
2017-06-03T04:19:17.863Z,99.99
2017-06-03T04:20:19.286Z,99.99
2017-06-03T04:21:20.717Z,99.99
2017-06-03T04:22:22.150Z,99.99
2017-06-03T04:23:23.572Z,99.99
2017-06-03T04:24:25.002Z,99.99
2017-06-03T04:25:26.431Z,99.99
2017-06-03T04:26:27.859Z,99.99
2017-06-03T04:27:29.286Z,99.99
2017-06-03T04:28:30.713Z,99.99
2017-06-03T04:29:32.146Z,99.99
2017-06-03T04:30:33.589Z,99.99
2017-06-03T04:31:35.015Z,99.99
2017-06-03T04:32:36.447Z,99.99
2017-06-03T04:33:37.874Z,99.99
2017-06-03T04:34:39.306Z,99.99
2017-06-03T04:35:40.733Z,99.99
2017-06-03T04:36:42.156Z,99.99
2017-06-03T04:37:43.588Z,99.99
2017-06-03T04:38:45.013Z,99.99
2017-06-03T04:39:46.440Z,99.99
2017-06-03T04:40:47.873Z,99.99
2017-06-03T04:41:49.305Z,99.99
2017-06-03T04:42:50.737Z,99.99
2017-06-03T04:43:52.171Z,99.99
2017-06-03T04:44:53.597Z,99.99
2017-06-03T04:45:55.028Z,99.99
2017-06-03T04:46:56.455Z,99.99
2017-06-03T04:47:57.889Z,99.99
2017-06-03T04:48:59.316Z,99.99
2017-06-03T04:50:01.437Z,99.99
2017-06-03T04:51:02.867Z,99.99
2017-06-03T04:52:04.294Z,99.99
2017-06-03T04:53:05.796Z,99.99
2017-06-03T04:54:07.251Z,99.99
2017-06-03T04:55:08.689Z,99.99
2017-06-03T04:56:10.114Z,99.99
2017-06-03T04:57:11.549Z,99.99
2017-06-03T04:58:12.999Z,99.99
2017-06-03T04:59:14.421Z,99.99
2017-06-03T05:00:15.862Z,99.99
2017-06-03T05:01:17.316Z,99.99
2017-06-03T05:02:18.747Z,99.99
2017-06-03T05:03:20.171Z,99.99
2017-06-03T05:04:21.615Z,99.99
2017-06-03T05:05:23.051Z,99.99
2017-06-03T05:06:24.480Z,99.99
2017-06-03T05:07:25.911Z,99.99
2017-06-03T05:08:27.351Z,99.99
2017-06-03T05:09:28.867Z,99.99
2017-06-03T05:10:30.307Z,99.99
2017-06-03T05:11:31.746Z,99.99
2017-06-03T05:12:33.190Z,99.99
2017-06-03T05:13:34.625Z,99.99
2017-06-03T05:14:36.057Z,99.99
2017-06-03T05:15:37.504Z,99.99
2017-06-03T05:16:38.946Z,99.99
2017-06-03T05:17:40.374Z,99.99
2017-06-03T05:18:41.816Z,99.99
2017-06-03T05:19:43.248Z,99.99
2017-06-03T05:20:44.684Z,99.99
2017-06-03T05:21:46.116Z,99.99
2017-06-03T05:22:47.550Z,99.99
2017-06-03T05:23:48.982Z,99.99
2017-06-03T05:24:50.414Z,99.99
2017-06-03T05:25:51.841Z,99.99
2017-06-03T05:26:53.268Z,99.99
2017-06-03T05:27:54.698Z,99.99
2017-06-03T05:28:56.130Z,99.99
2017-06-03T05:29:57.566Z,99.99
2017-06-03T05:30:59.006Z,99.99
2017-06-03T05:32:00.436Z,99.99
2017-06-03T05:33:01.866Z,99.99
2017-06-03T05:34:03.295Z,99.99
2017-06-03T05:35:04.731Z,99.99
2017-06-03T05:36:06.175Z,99.99
2017-06-03T05:37:07.598Z,99.99
2017-06-03T05:38:09.028Z,99.99
2017-06-03T05:39:10.463Z,99.99
2017-06-03T05:40:11.896Z,99.99
2017-06-03T05:41:13.335Z,99.99
2017-06-03T05:42:14.771Z,99.99
2017-06-03T05:43:16.194Z,99.99
2017-06-03T05:44:17.627Z,99.99
2017-06-03T05:45:19.058Z,99.99
2017-06-03T05:46:20.490Z,99.99
2017-06-03T05:47:21.924Z,99.99
2017-06-03T05:48:23.358Z,99.99
2017-06-03T05:49:24.798Z,99.99
2017-06-03T05:50:26.225Z,99.99
2017-06-03T05:51:27.657Z,99.99
2017-06-03T05:52:29.136Z,99.99
2017-06-03T05:53:30.566Z,99.99
2017-06-03T05:54:32.012Z,99.99
2017-06-03T05:55:33.446Z,99.99
2017-06-03T05:56:34.877Z,99.99
2017-06-03T05:57:36.305Z,99.99
2017-06-03T05:58:37.747Z,99.99
2017-06-03T05:59:39.175Z,99.99
2017-06-03T06:00:40.603Z,99.99
2017-06-03T06:01:42.028Z,99.99
2017-06-03T06:02:43.467Z,99.99
2017-06-03T06:03:44.897Z,99.99
2017-06-03T06:04:46.335Z,99.99
2017-06-03T06:05:47.779Z,99.99
2017-06-03T06:06:49.216Z,99.99
2017-06-03T06:07:50.643Z,99.99
2017-06-03T06:08:52.077Z,99.99
2017-06-03T06:09:53.507Z,99.99
2017-06-03T06:10:54.937Z,99.99
2017-06-03T06:11:56.368Z,99.99
2017-06-03T06:12:57.801Z,99.99
2017-06-03T06:13:59.237Z,99.99
2017-06-03T06:15:00.662Z,99.99
2017-06-03T06:16:02.102Z,99.99
2017-06-03T06:17:03.543Z,99.99
2017-06-03T06:18:04.972Z,99.99
2017-06-03T06:19:06.408Z,99.99
2017-06-03T06:20:07.833Z,99.99
2017-06-03T06:21:09.271Z,99.99
2017-06-03T06:22:10.695Z,99.99
2017-06-03T06:23:12.127Z,99.99
2017-06-03T06:24:13.556Z,99.99
2017-06-03T06:25:14.985Z,99.99
2017-06-03T06:26:16.417Z,99.99
2017-06-03T06:27:17.846Z,99.99
2017-06-03T06:28:19.275Z,99.99
2017-06-03T06:29:20.709Z,99.99
2017-06-03T06:30:22.146Z,99.99
2017-06-03T06:31:23.580Z,99.99
2017-06-03T06:32:25.010Z,99.99
2017-06-03T06:33:26.434Z,99.99
2017-06-03T06:34:27.861Z,99.99
2017-06-03T06:35:29.299Z,99.99
2017-06-03T06:36:30.726Z,99.99
2017-06-03T06:37:32.162Z,99.99
2017-06-03T06:38:33.592Z,99.99
2017-06-03T06:39:35.029Z,99.99
2017-06-03T06:40:36.456Z,99.99
2017-06-03T06:41:37.883Z,99.99
2017-06-03T06:42:39.319Z,99.99
2017-06-03T06:43:40.746Z,99.99
2017-06-03T06:44:42.174Z,99.99
2017-06-03T06:45:43.694Z,99.99
2017-06-03T06:46:45.172Z,99.99
2017-06-03T06:47:46.616Z,99.99
2017-06-03T06:48:48.045Z,99.99
2017-06-03T06:49:49.480Z,99.99
2017-06-03T06:50:50.909Z,99.99
2017-06-03T06:51:52.337Z,99.99
2017-06-03T06:52:53.770Z,99.99
2017-06-03T06:53:55.205Z,99.99
2017-06-03T06:54:56.649Z,99.99
2017-06-03T06:55:58.076Z,99.99
2017-06-03T06:56:59.520Z,99.99
2017-06-03T06:58:00.953Z,99.99
2017-06-03T06:59:02.390Z,99.99
2017-06-03T07:00:03.817Z,99.99
2017-06-03T07:01:05.266Z,99.99
2017-06-03T07:02:06.697Z,99.99
2017-06-03T07:03:08.139Z,99.99
2017-06-03T07:04:09.580Z,99.99
2017-06-03T07:05:11.115Z,99.99
2017-06-03T07:06:12.546Z,99.99
2017-06-03T07:07:13.981Z,99.99
2017-06-03T07:08:15.418Z,99.99
2017-06-03T07:09:16.857Z,99.99
2017-06-03T07:10:18.287Z,99.99
2017-06-03T07:11:19.734Z,99.99
2017-06-03T07:12:21.166Z,99.99
2017-06-03T07:13:22.619Z,99.99
2017-06-03T07:14:24.026Z,99.99
2017-06-03T07:15:25.468Z,99.99
2017-06-03T07:16:26.989Z,99.99
2017-06-03T07:17:28.421Z,99.99
2017-06-03T07:18:29.849Z,99.99
2017-06-03T07:19:31.286Z,99.99
2017-06-03T07:20:32.727Z,99.99
2017-06-03T07:21:34.155Z,99.99
2017-06-03T07:22:35.588Z,99.99
2017-06-03T07:23:37.022Z,99.99
2017-06-03T07:24:38.459Z,99.99
2017-06-03T07:25:39.891Z,99.99
2017-06-03T07:26:41.334Z,99.99
2017-06-03T07:27:42.826Z,99.99
2017-06-03T07:28:44.256Z,99.99
2017-06-03T07:29:45.697Z,99.99
2017-06-03T07:30:47.142Z,99.99
2017-06-03T07:31:48.574Z,99.99
2017-06-03T07:32:50.017Z,99.99
2017-06-03T07:33:51.514Z,99.99
2017-06-03T07:34:52.955Z,99.99
2017-06-03T07:35:54.385Z,99.99
2017-06-03T07:36:55.814Z,99.99
2017-06-03T07:37:57.331Z,99.99
2017-06-03T07:38:58.762Z,99.99
2017-06-03T07:40:00.197Z,99.99
2017-06-03T07:41:01.627Z,99.99
2017-06-03T07:42:03.064Z,99.99
2017-06-03T07:43:04.494Z,99.99
2017-06-03T07:44:05.930Z,99.99
2017-06-03T07:45:07.452Z,99.99
2017-06-03T07:46:08.878Z,99.99
2017-06-03T07:47:10.313Z,99.99
2017-06-03T07:48:11.751Z,99.99
2017-06-03T07:49:13.183Z,99.99
2017-06-03T07:50:14.617Z,99.99
2017-06-03T07:51:16.056Z,99.99
2017-06-03T07:52:17.514Z,99.99
2017-06-03T07:53:19.667Z,99.99
2017-06-03T07:54:21.096Z,99.99
2017-06-03T07:55:22.529Z,99.99
2017-06-03T07:56:24.585Z,99.99
2017-06-03T07:57:26.016Z,99.99
2017-06-03T07:58:27.543Z,99.99
2017-06-03T07:59:28.975Z,99.99
2017-06-03T08:00:30.409Z,99.99
2017-06-03T08:01:31.838Z,99.99
2017-06-03T08:02:33.273Z,99.99
2017-06-03T08:03:34.704Z,99.99
2017-06-03T08:04:36.141Z,99.99
2017-06-03T08:05:37.568Z,99.99
2017-06-03T08:06:39.002Z,99.99
2017-06-03T08:07:40.439Z,99.99
2017-06-03T08:08:41.866Z,99.99
2017-06-03T08:09:43.299Z,99.99
2017-06-03T08:10:44.736Z,99.99
2017-06-03T08:11:46.169Z,99.99
2017-06-03T08:12:47.599Z,99.99
2017-06-03T08:13:49.031Z,99.99
2017-06-03T08:14:50.465Z,99.99
2017-06-03T08:15:51.895Z,99.99
2017-06-03T08:16:53.334Z,99.99
2017-06-03T08:17:54.773Z,99.99
2017-06-03T08:18:56.208Z,99.99
2017-06-03T08:19:57.649Z,99.99
2017-06-03T08:20:59.083Z,99.99
2017-06-03T08:22:00.520Z,99.99
2017-06-03T08:23:01.950Z,99.99
2017-06-03T08:24:03.388Z,99.99
2017-06-03T08:25:04.831Z,99.99
2017-06-03T08:26:06.269Z,99.99
2017-06-03T08:27:07.705Z,99.99
2017-06-03T08:28:09.137Z,99.99
2017-06-03T08:29:10.578Z,99.99
2017-06-03T08:30:12.013Z,99.99
2017-06-03T08:31:13.452Z,99.99
2017-06-03T08:32:14.888Z,99.99
2017-06-03T08:33:16.320Z,94.10
2017-06-03T08:34:17.759Z,98.63
2017-06-03T08:35:19.200Z,99.99
2017-06-03T08:36:20.644Z,99.99
2017-06-03T08:37:22.080Z,99.99
2017-06-03T08:38:23.512Z,99.99
2017-06-03T08:39:24.959Z,99.99
2017-06-03T08:40:26.393Z,99.99
2017-06-03T08:41:27.834Z,99.99
2017-06-03T08:42:29.268Z,99.99
2017-06-03T08:43:30.700Z,99.99
2017-06-03T08:44:32.139Z,99.99
2017-06-03T08:45:33.574Z,99.99
2017-06-03T08:46:35.066Z,98.00
2017-06-03T08:47:36.506Z,99.99
2017-06-03T08:48:37.932Z,99.99
2017-06-03T08:49:39.398Z,99.99
2017-06-03T08:50:40.814Z,93.52
2017-06-03T08:51:42.250Z,98.10
2017-06-03T08:52:43.690Z,99.99
2017-06-03T08:53:45.160Z,97.33
2017-06-03T08:54:46.590Z,97.33
2017-06-03T08:55:48.027Z,97.62
2017-06-03T08:56:49.516Z,99.41
2017-06-03T08:57:50.949Z,98.54
2017-06-03T08:58:52.391Z,96.12
2017-06-03T08:59:53.848Z,96.70
2017-06-03T09:00:55.304Z,97.57
2017-06-03T09:01:57.402Z,97.96
2017-06-03T09:02:58.844Z,96.51
2017-06-03T09:04:00.276Z,97.38
2017-06-03T09:05:01.714Z,98.93
2017-06-03T09:06:03.145Z,99.89
2017-06-03T09:07:04.579Z,98.73
2017-06-03T09:08:06.024Z,99.21
2017-06-03T09:09:07.455Z,97.52
2017-06-03T09:10:08.897Z,98.88
2017-06-03T09:11:10.332Z,98.78
2017-06-03T09:12:11.762Z,96.12
2017-06-03T09:13:13.196Z,94.38
2017-06-03T09:14:14.640Z,97.57
2017-06-03T09:15:16.074Z,99.69
2017-06-03T09:16:17.522Z,94.91
2017-06-03T09:17:18.966Z,91.97
2017-06-03T09:18:20.943Z,90.52
2017-06-03T09:19:22.378Z,92.16
2017-06-03T09:20:23.820Z,96.12
2017-06-03T09:21:25.250Z,95.93
2017-06-03T09:22:26.688Z,98.05
2017-06-03T09:23:28.121Z,95.45
2017-06-03T09:24:29.561Z,97.19
2017-06-03T09:25:31.002Z,94.92
2017-06-03T09:26:32.441Z,95.40
2017-06-03T09:27:33.881Z,98.00
2017-06-03T09:28:35.317Z,96.80
2017-06-03T09:29:36.752Z,97.28
2017-06-03T09:30:39.069Z,97.19
2017-06-03T09:31:41.925Z,97.42
2017-06-03T09:32:43.363Z,98.39
2017-06-03T09:33:44.800Z,97.62
2017-06-03T09:34:46.229Z,93.75
2017-06-03T09:35:47.669Z,91.72
2017-06-03T09:36:49.097Z,96.07
2017-06-03T09:37:50.549Z,92.11
2017-06-03T09:38:51.987Z,92.01
2017-06-03T09:39:53.427Z,93.17
2017-06-03T09:40:54.859Z,92.88
2017-06-03T09:41:56.299Z,93.17
2017-06-03T09:42:57.736Z,92.88
2017-06-03T09:43:59.169Z,93.27
2017-06-03T09:45:00.598Z,92.88
2017-06-03T09:46:02.041Z,93.08
2017-06-03T09:47:03.478Z,91.91
2017-06-03T09:48:04.918Z,93.95
2017-06-03T09:49:06.353Z,92.06
2017-06-03T09:50:07.787Z,95.06
2017-06-03T09:51:09.232Z,89.79
2017-06-03T09:52:10.673Z,92.21
2017-06-03T09:53:12.099Z,89.98
2017-06-03T09:54:13.540Z,91.58
2017-06-03T09:55:14.976Z,90.12
2017-06-03T09:56:16.408Z,89.25
2017-06-03T09:57:17.847Z,89.06
2017-06-03T09:58:19.290Z,88.73
2017-06-03T09:59:20.728Z,89.98
2017-06-03T10:00:22.171Z,91.77
2017-06-03T10:01:23.609Z,92.11
2017-06-03T10:02:25.043Z,91.58
2017-06-03T10:03:26.477Z,89.69
2017-06-03T10:04:27.919Z,87.51
2017-06-03T10:05:29.353Z,88.77
2017-06-03T10:06:30.783Z,87.17
2017-06-03T10:07:32.215Z,86.20
2017-06-03T10:08:33.660Z,87.27
2017-06-03T10:09:35.103Z,89.34
2017-06-03T10:10:36.528Z,88.76
2017-06-03T10:11:37.960Z,85.57
2017-06-03T10:12:39.405Z,85.96
2017-06-03T10:13:40.845Z,86.15
2017-06-03T10:14:42.282Z,87.74
2017-06-03T10:15:43.738Z,84.60
2017-06-03T10:16:45.168Z,85.66
2017-06-03T10:17:46.607Z,85.57
2017-06-03T10:18:48.043Z,86.00
2017-06-03T10:19:49.479Z,83.96
2017-06-03T10:20:52.388Z,85.90
2017-06-03T10:21:53.824Z,86.58
2017-06-03T10:22:55.262Z,84.69
2017-06-03T10:23:56.692Z,86.09
2017-06-03T10:24:58.130Z,82.80
2017-06-03T10:25:59.571Z,85.31
2017-06-03T10:27:01.009Z,85.55
2017-06-03T10:28:02.451Z,83.27
2017-06-03T10:29:03.887Z,85.46
2017-06-03T10:30:05.790Z,83.09
2017-06-03T10:31:07.236Z,82.35
2017-06-03T10:32:08.670Z,83.91
2017-06-03T10:33:10.606Z,83.81
2017-06-03T10:34:12.039Z,79.90
2017-06-03T10:35:13.485Z,83.33
2017-06-03T10:36:14.918Z,84.24
2017-06-03T10:37:16.361Z,82.65
2017-06-03T10:38:17.798Z,81.52
2017-06-03T10:39:19.241Z,79.00
2017-06-03T10:40:20.678Z,80.30
2017-06-03T10:41:22.112Z,80.55
2017-06-03T10:42:23.551Z,80.01
2017-06-03T10:43:24.987Z,82.05
2017-06-03T10:44:26.427Z,81.57
2017-06-03T10:45:27.867Z,80.73
2017-06-03T10:46:29.304Z,80.88
2017-06-03T10:47:30.750Z,80.40
2017-06-03T10:48:32.185Z,78.94
2017-06-03T10:49:33.630Z,81.95
2017-06-03T10:50:35.071Z,80.50
2017-06-03T10:51:36.504Z,81.99
2017-06-03T10:52:38.607Z,82.77
2017-06-03T10:53:39.323Z,80.83
2017-06-03T10:54:40.764Z,80.34
2017-06-03T10:55:42.201Z,80.05
2017-06-03T10:56:43.638Z,76.27
2017-06-03T10:57:45.067Z,78.44
2017-06-03T10:58:46.506Z,81.93
2017-06-03T10:59:47.946Z,83.04
2017-06-03T11:00:49.388Z,81.82
2017-06-03T11:01:50.831Z,75.47
2017-06-03T11:02:52.269Z,78.73
2017-06-03T11:03:53.713Z,75.82
2017-06-03T11:04:55.148Z,77.34
2017-06-03T11:05:56.585Z,77.69
2017-06-03T11:06:58.020Z,80.05
2017-06-03T11:07:59.457Z,79.91
2017-06-03T11:09:00.904Z,78.36
2017-06-03T11:10:02.346Z,79.20
2017-06-03T11:11:03.779Z,77.84
2017-06-03T11:12:05.220Z,78.87
2017-06-03T11:13:06.659Z,78.19
2017-06-03T11:14:08.100Z,78.67
2017-06-03T11:15:09.534Z,78.42
2017-06-03T11:16:10.976Z,79.57
2017-06-03T11:17:12.415Z,78.40
2017-06-03T11:18:13.859Z,77.72
2017-06-03T11:19:15.300Z,77.72
2017-06-03T11:20:16.735Z,77.43
2017-06-03T11:21:18.182Z,75.65
2017-06-03T11:22:19.618Z,76.23
2017-06-03T11:23:21.055Z,77.53
2017-06-03T11:24:22.500Z,78.11
2017-06-03T11:25:23.946Z,76.27
2017-06-03T11:26:25.385Z,77.92
2017-06-03T11:27:26.823Z,77.98
2017-06-03T11:28:28.256Z,74.97
2017-06-03T11:29:29.688Z,76.37
2017-06-03T11:30:31.121Z,76.40
2017-06-03T11:31:32.570Z,75.43
2017-06-03T11:32:33.997Z,76.98
2017-06-03T11:33:35.436Z,77.76
2017-06-03T11:34:36.873Z,76.31
2017-06-03T11:35:38.304Z,73.62
2017-06-03T11:36:39.745Z,70.19
2017-06-03T11:37:41.203Z,70.48
2017-06-03T11:38:42.641Z,71.20
2017-06-03T11:39:44.079Z,75.67
2017-06-03T11:40:45.521Z,73.56
2017-06-03T11:41:46.963Z,75.41
2017-06-03T11:42:48.403Z,72.20
2017-06-03T11:43:49.841Z,73.56
2017-06-03T11:44:51.276Z,73.37
2017-06-03T11:45:52.713Z,71.72
2017-06-03T11:46:54.147Z,71.72
2017-06-03T11:47:55.585Z,72.65
2017-06-03T11:48:57.029Z,72.49
2017-06-03T11:49:58.468Z,72.52
2017-06-03T11:50:59.903Z,71.26
2017-06-03T11:52:01.345Z,73.88
2017-06-03T11:53:02.787Z,76.31
2017-06-03T11:54:04.707Z,76.17
2017-06-03T11:55:06.144Z,78.40
2017-06-03T11:56:07.588Z,78.40
2017-06-03T11:57:09.029Z,77.72
2017-06-03T11:58:10.469Z,77.76
2017-06-03T11:59:11.923Z,76.07
2017-06-03T12:00:13.355Z,75.10
2017-06-03T12:01:14.795Z,73.61
2017-06-03T12:02:16.233Z,74.68
2017-06-03T12:03:17.672Z,76.95
2017-06-03T12:04:19.109Z,76.27
2017-06-03T12:05:20.551Z,74.17
2017-06-03T12:06:21.990Z,72.91
2017-06-03T12:07:23.430Z,74.17
2017-06-03T12:08:24.875Z,72.39
2017-06-03T12:09:26.324Z,73.65
2017-06-03T12:10:27.752Z,74.10
2017-06-03T12:11:29.194Z,74.97
2017-06-03T12:12:30.630Z,74.81
2017-06-03T12:13:32.067Z,71.22
2017-06-03T12:14:33.501Z,73.78
2017-06-03T12:15:34.937Z,73.32
2017-06-03T12:16:36.380Z,73.52
2017-06-03T12:17:37.823Z,75.45
2017-06-03T12:18:39.262Z,74.10
2017-06-03T12:19:40.700Z,72.19
2017-06-03T12:20:42.143Z,73.74
2017-06-03T12:21:43.584Z,75.43
2017-06-03T12:22:45.020Z,72.58
2017-06-03T12:23:46.455Z,70.51
2017-06-03T12:24:47.893Z,73.42
2017-06-03T12:25:49.348Z,75.01
2017-06-03T12:26:50.779Z,73.26
2017-06-03T12:27:52.217Z,73.00
2017-06-03T12:28:53.656Z,71.84
2017-06-03T12:29:55.097Z,71.84
2017-06-03T12:30:56.543Z,71.16
2017-06-03T12:31:57.982Z,70.25
2017-06-03T12:32:59.426Z,71.90
2017-06-03T12:34:00.870Z,71.38
2017-06-03T12:35:02.312Z,71.61
2017-06-03T12:36:03.748Z,70.15
2017-06-03T12:37:05.188Z,72.09
2017-06-03T12:38:06.623Z,73.84
2017-06-03T12:39:08.062Z,76.75
2017-06-03T12:40:09.499Z,75.40
2017-06-03T12:41:10.942Z,74.37
2017-06-03T12:42:12.380Z,70.97
2017-06-03T12:43:13.819Z,71.20
2017-06-03T12:44:15.262Z,71.13
2017-06-03T12:45:16.699Z,70.65
2017-06-03T12:46:18.140Z,71.03
2017-06-03T12:47:19.585Z,73.75
2017-06-03T12:48:21.025Z,73.37
2017-06-03T12:49:22.460Z,71.10
2017-06-03T12:50:23.891Z,71.48
2017-06-03T12:51:25.325Z,67.76
2017-06-03T12:52:26.763Z,72.81
2017-06-03T12:53:28.200Z,73.49
2017-06-03T12:54:29.636Z,71.32
2017-06-03T12:55:31.082Z,70.64
2017-06-03T12:56:32.516Z,69.67
2017-06-03T12:57:33.964Z,72.77
2017-06-03T12:58:35.402Z,72.49
2017-06-03T12:59:36.836Z,72.16
2017-06-03T13:00:38.280Z,74.81
2017-06-03T13:01:39.723Z,75.74
2017-06-03T13:02:41.163Z,74.43
2017-06-03T13:03:42.601Z,72.58
2017-06-03T13:04:44.040Z,74.37
2017-06-03T13:05:45.498Z,70.97
2017-06-03T13:06:46.964Z,72.75
2017-06-03T13:07:48.380Z,69.74
2017-06-03T13:08:49.821Z,71.03
2017-06-03T13:09:51.253Z,71.13
2017-06-03T13:10:52.685Z,71.91